Portada
METAR-TAF:

METAR-TAF

Aeroports :

Tiaret, Algèria

latitud: 35-15N, longitud: 001-26E, altitud: 1127 m

Observació

L'informe es va fer fa 46 minuts, a les 08:00 UTC
Vent 11 kt del Sud-Oest
Temperatura 32°C
Humitat 14%
Pressió 1020 hPa
Visibilitat 10 km o més
sense núvols per sota de 1500 mi sense presència de cumulonimbus.

METAR: DAOB 090800Z 22011KT CAVOK 32/01 Q1020

Hora: 09:46 (08:46 UTC)

Pronòstic

L'informe es va fer fa 3 hores i 46 minuts, a les 05:00 UTC
Pronòstic vàlid del 09 a les 06 UTC al 10 a les 06 UTC
Vent 12 kt del Sud
Visibilitat 10 km o més
sense núvols per sota de 1500 mi sense presència de cumulonimbus.
Probabilitat 30% :
Temporalment
l' 09 a les 14 UTC al 09 a les 18 UTC
Escasses núvols a una alçada de 2600 ft, Cumulonimbus.
Evolucionant progressivament
l' 09 a les 17 UTC al 09 a les 20 UTC
Vent 2 kt amb direcció variable

TAF: DAOB 090500Z 0906/1006 18012KT CAVOK PROB30 TEMPO 0914/0918 FEW026CB BECMG 0917/0920 VRB02KT

Observacions i pronòstics meteorològics de més de 4000 aeroports (METAR i TAF).

Les estacions disponibles són els punts grocs i vermells al mapa.

Posi el ratolí al punt desitjat per veure el nom de l'estació.

Feu clic per veure les observacions i els pronòstics meteorològics.

Per canviar el mapa: feu clic els botons verds amb una creu de color negre per apropar; al botó verd amb un guió per allunyar la imatge; o en les fletxes verdes per a mapes adjacents.


METAR-TAF: